sensor_id;sensor_type;location;lat;lon;timestamp;pressure;altitude;pressure_sealevel;temperature;humidity
67373;BME280;54257;54.496;18.412;2022-09-09T00:02:01;99593.95;;;14.10;62.56
67373;BME280;54257;54.496;18.412;2022-09-09T00:04:35;99588.10;;;14.08;62.65
67373;BME280;54257;54.496;18.412;2022-09-09T00:07:20;99597.74;;;14.04;62.44
67373;BME280;54257;54.496;18.412;2022-09-09T00:10:14;99581.61;;;14.01;62.73
67373;BME280;54257;54.496;18.412;2022-09-09T00:18:57;99583.85;;;14.00;62.53
67373;BME280;54257;54.496;18.412;2022-09-09T00:21:36;99573.89;;;13.98;62.23
67373;BME280;54257;54.496;18.412;2022-09-09T00:24:32;99568.58;;;13.97;62.31
67373;BME280;54257;54.496;18.412;2022-09-09T00:27:25;99564.79;;;13.97;62.28
67373;BME280;54257;54.496;18.412;2022-09-09T00:32:46;99563.95;;;13.93;61.75
67373;BME280;54257;54.496;18.412;2022-09-09T00:35:30;99562.58;;;13.94;61.73
67373;BME280;54257;54.496;18.412;2022-09-09T00:38:03;99561.39;;;13.93;61.46
67373;BME280;54257;54.496;18.412;2022-09-09T00:40:45;99557.27;;;13.91;61.22
67373;BME280;54257;54.496;18.412;2022-09-09T00:43:33;99553.14;;;13.92;61.23
67373;BME280;54257;54.496;18.412;2022-09-09T00:46:26;99553.98;;;13.92;61.07
67373;BME280;54257;54.496;18.412;2022-09-09T00:54:40;99555.20;;;13.90;60.95
67373;BME280;54257;54.496;18.412;2022-09-09T00:57:31;99559.16;;;13.88;60.96
67373;BME280;54257;54.496;18.412;2022-09-09T01:05:49;99558.84;;;13.80;61.02
67373;BME280;54257;54.496;18.412;2022-09-09T01:08:39;99558.33;;;13.80;60.93
67373;BME280;54257;54.496;18.412;2022-09-09T01:11:25;99557.48;;;13.80;60.85
67373;BME280;54257;54.496;18.412;2022-09-09T01:17:02;99566.58;;;13.77;60.72
67373;BME280;54257;54.496;18.412;2022-09-09T01:22:50;99562.98;;;13.77;60.77
67373;BME280;54257;54.496;18.412;2022-09-09T01:28:28;99562.12;;;13.75;60.65
67373;BME280;54257;54.496;18.412;2022-09-09T01:30:57;99558.35;;;13.72;60.66
67373;BME280;54257;54.496;18.412;2022-09-09T01:33:25;99562.98;;;13.72;60.57
67373;BME280;54257;54.496;18.412;2022-09-09T01:36:00;99566.76;;;13.73;60.58
67373;BME280;54257;54.496;18.412;2022-09-09T01:38:32;99560.22;;;13.75;60.59
67373;BME280;54257;54.496;18.412;2022-09-09T01:41:02;99564.69;;;13.76;60.55
67373;BME280;54257;54.496;18.412;2022-09-09T01:43:29;99567.44;;;13.76;60.49
67373;BME280;54257;54.496;18.412;2022-09-09T01:45:59;99569.84;;;13.76;60.51
67373;BME280;54257;54.496;18.412;2022-09-09T01:48:27;99567.27;;;13.75;60.51
67373;BME280;54257;54.496;18.412;2022-09-09T01:50:55;99570.19;;;13.73;60.46
67373;BME280;54257;54.496;18.412;2022-09-09T01:53:23;99568.47;;;13.76;60.47
67373;BME280;54257;54.496;18.412;2022-09-09T01:56:19;99568.64;;;13.75;60.42
67373;BME280;54257;54.496;18.412;2022-09-09T02:06:56;99560.05;;;13.77;60.30
67373;BME280;54257;54.496;18.412;2022-09-09T02:09:24;99555.77;;;13.77;60.23
67373;BME280;54257;54.496;18.412;2022-09-09T02:12:16;99559.89;;;13.77;60.22
67373;BME280;54257;54.496;18.412;2022-09-09T02:14:52;99556.96;;;13.75;60.28
67373;BME280;54257;54.496;18.412;2022-09-09T02:20:41;99555.25;;;13.75;60.22
67373;BME280;54257;54.496;18.412;2022-09-09T02:23:25;99553.20;;;13.72;60.29
67373;BME280;54257;54.496;18.412;2022-09-09T02:25:53;99550.11;;;13.74;60.39
67373;BME280;54257;54.496;18.412;2022-09-09T02:28:25;99554.91;;;13.73;60.28
67373;BME280;54257;54.496;18.412;2022-09-09T02:30:54;99548.04;;;13.74;60.26
67373;BME280;54257;54.496;18.412;2022-09-09T02:33:28;99542.89;;;13.75;60.19
67373;BME280;54257;54.496;18.412;2022-09-09T02:35:58;99550.44;;;13.75;60.16
67373;BME280;54257;54.496;18.412;2022-09-09T02:38:35;99543.59;;;13.74;60.36
67373;BME280;54257;54.496;18.412;2022-09-09T02:41:03;99553.55;;;13.77;60.24
67373;BME280;54257;54.496;18.412;2022-09-09T02:43:34;99550.45;;;13.73;60.37
67373;BME280;54257;54.496;18.412;2022-09-09T02:49:09;99554.92;;;13.70;60.78
67373;BME280;54257;54.496;18.412;2022-09-09T02:52:01;99559.05;;;13.69;60.86
67373;BME280;54257;54.496;18.412;2022-09-09T02:54:34;99554.59;;;13.66;60.67
67373;BME280;54257;54.496;18.412;2022-09-09T02:57:11;99556.82;;;13.65;60.62
67373;BME280;54257;54.496;18.412;2022-09-09T02:59:39;99557.17;;;13.63;60.70
67373;BME280;54257;54.496;18.412;2022-09-09T03:02:07;99559.06;;;13.62;60.49
67373;BME280;54257;54.496;18.412;2022-09-09T03:04:38;99553.23;;;13.61;60.42
67373;BME280;54257;54.496;18.412;2022-09-09T03:07:06;99560.96;;;13.62;60.54
67373;BME280;54257;54.496;18.412;2022-09-09T03:09:33;99561.48;;;13.62;60.79
67373;BME280;54257;54.496;18.412;2022-09-09T03:12:00;99565.59;;;13.60;60.86
67373;BME280;54257;54.496;18.412;2022-09-09T03:14:27;99564.38;;;13.59;61.96
67373;BME280;54257;54.496;18.412;2022-09-09T03:16:54;99563.71;;;13.52;63.01
67373;BME280;54257;54.496;18.412;2022-09-09T03:19:24;99568.36;;;13.43;63.82
67373;BME280;54257;54.496;18.412;2022-09-09T03:21:51;99571.98;;;13.32;64.38
67373;BME280;54257;54.496;18.412;2022-09-09T03:24:18;99569.58;;;13.25;65.19
67373;BME280;54257;54.496;18.412;2022-09-09T03:26:45;99569.55;;;13.17;65.74
67373;BME280;54257;54.496;18.412;2022-09-09T03:29:13;99568.89;;;13.13;65.59
67373;BME280;54257;54.496;18.412;2022-09-09T03:31:41;99570.77;;;13.08;66.54
67373;BME280;54257;54.496;18.412;2022-09-09T03:34:10;99573.84;;;13.01;67.52
67373;BME280;54257;54.496;18.412;2022-09-09T03:36:37;99578.80;;;12.83;70.25
67373;BME280;54257;54.496;18.412;2022-09-09T03:39:04;99581.86;;;12.65;71.50
67373;BME280;54257;54.496;18.412;2022-09-09T03:41:31;99583.00;;;12.42;72.83
67373;BME280;54257;54.496;18.412;2022-09-09T03:43:59;99583.30;;;12.28;73.77
67373;BME280;54257;54.496;18.412;2022-09-09T03:46:26;99590.27;;;12.18;74.95
67373;BME280;54257;54.496;18.412;2022-09-09T03:48:53;99595.38;;;12.08;74.83
67373;BME280;54257;54.496;18.412;2022-09-09T03:51:20;99593.27;;;11.99;76.39
67373;BME280;54257;54.496;18.412;2022-09-09T03:53:48;99598.36;;;11.88;77.59
67373;BME280;54257;54.496;18.412;2022-09-09T03:56:15;99599.80;;;11.75;78.33
67373;BME280;54257;54.496;18.412;2022-09-09T03:58:43;99599.58;;;11.68;78.84
67373;BME280;54257;54.496;18.412;2022-09-09T04:01:14;99602.61;;;11.62;78.98
67373;BME280;54257;54.496;18.412;2022-09-09T04:03:41;99608.92;;;11.58;79.43
67373;BME280;54257;54.496;18.412;2022-09-09T04:06:10;99608.89;;;11.53;80.66
67373;BME280;54257;54.496;18.412;2022-09-09T04:08:40;99606.48;;;11.49;81.22
67373;BME280;54257;54.496;18.412;2022-09-09T04:11:10;99609.00;;;11.44;81.92
67373;BME280;54257;54.496;18.412;2022-09-09T04:13:38;99611.19;;;11.40;82.28
67373;BME280;54257;54.496;18.412;2022-09-09T04:16:11;99609.98;;;11.39;82.13
67373;BME280;54257;54.496;18.412;2022-09-09T04:18:41;99609.11;;;11.35;83.33
67373;BME280;54257;54.496;18.412;2022-09-09T04:21:09;99612.17;;;11.33;82.62
67373;BME280;54257;54.496;18.412;2022-09-09T04:23:37;99609.60;;;11.32;83.02
67373;BME280;54257;54.496;18.412;2022-09-09T04:26:05;99612.49;;;11.32;83.40
67373;BME280;54257;54.496;18.412;2022-09-09T04:28:34;99617.27;;;11.30;83.72
67373;BME280;54257;54.496;18.412;2022-09-09T04:31:15;99611.96;;;11.30;83.98
67373;BME280;54257;54.496;18.412;2022-09-09T04:33:45;99610.77;;;11.30;83.67
67373;BME280;54257;54.496;18.412;2022-09-09T04:36:13;99615.39;;;11.31;83.53
67373;BME280;54257;54.496;18.412;2022-09-09T04:38:40;99615.76;;;11.33;83.19
67373;BME280;54257;54.496;18.412;2022-09-09T04:41:08;99617.46;;;11.33;84.62
67373;BME280;54257;54.496;18.412;2022-09-09T04:43:38;99619.83;;;11.30;85.12
67373;BME280;54257;54.496;18.412;2022-09-09T04:46:06;99622.40;;;11.31;83.91
67373;BME280;54257;54.496;18.412;2022-09-09T04:48:33;99626.52;;;11.32;84.77
67373;BME280;54257;54.496;18.412;2022-09-09T04:51:02;99633.33;;;11.28;85.76
67373;BME280;54257;54.496;18.412;2022-09-09T04:53:31;99632.12;;;11.25;86.08
67373;BME280;54257;54.496;18.412;2022-09-09T04:58:31;99635.03;;;11.27;85.81
67373;BME280;54257;54.496;18.412;2022-09-09T05:01:10;99631.60;;;11.25;85.21
67373;BME280;54257;54.496;18.412;2022-09-09T05:03:39;99628.36;;;11.29;85.27
67373;BME280;54257;54.496;18.412;2022-09-09T05:06:11;99632.30;;;11.26;86.33
67373;BME280;54257;54.496;18.412;2022-09-09T05:08:40;99633.61;;;11.23;86.71
67373;BME280;54257;54.496;18.412;2022-09-09T05:11:18;99633.59;;;11.19;86.68
67373;BME280;54257;54.496;18.412;2022-09-09T05:13:47;99634.95;;;11.16;87.07
67373;BME280;54257;54.496;18.412;2022-09-09T05:16:15;99640.42;;;11.18;86.90
67373;BME280;54257;54.496;18.412;2022-09-09T05:18:44;99641.60;;;11.15;87.76
67373;BME280;54257;54.496;18.412;2022-09-09T05:21:18;99642.96;;;11.15;87.91
67373;BME280;54257;54.496;18.412;2022-09-09T05:23:46;99642.26;;;11.13;87.82
67373;BME280;54257;54.496;18.412;2022-09-09T05:26:22;99641.40;;;11.13;87.77
67373;BME280;54257;54.496;18.412;2022-09-09T05:28:49;99644.64;;;11.13;87.61
67373;BME280;54257;54.496;18.412;2022-09-09T05:31:18;99644.80;;;11.10;87.90
67373;BME280;54257;54.496;18.412;2022-09-09T05:33:47;99645.99;;;11.10;87.72
67373;BME280;54257;54.496;18.412;2022-09-09T05:36:19;99640.70;;;11.10;87.38
67373;BME280;54257;54.496;18.412;2022-09-09T05:38:48;99642.23;;;11.10;87.63
67373;BME280;54257;54.496;18.412;2022-09-09T05:41:17;99639.51;;;11.11;87.11
67373;BME280;54257;54.496;18.412;2022-09-09T05:43:45;99643.27;;;11.11;87.06
67373;BME280;54257;54.496;18.412;2022-09-09T05:46:16;99639.66;;;11.09;87.61
67373;BME280;54257;54.496;18.412;2022-09-09T05:48:46;99643.05;;;11.06;88.26
67373;BME280;54257;54.496;18.412;2022-09-09T05:51:15;99642.69;;;11.04;87.91
67373;BME280;54257;54.496;18.412;2022-09-09T05:53:45;99643.01;;;11.02;88.49
67373;BME280;54257;54.496;18.412;2022-09-09T05:56:23;99647.27;;;11.02;88.49
67373;BME280;54257;54.496;18.412;2022-09-09T05:58:52;99646.53;;;10.96;89.09
67373;BME280;54257;54.496;18.412;2022-09-09T06:01:26;99647.89;;;10.94;89.26
67373;BME280;54257;54.496;18.412;2022-09-09T06:03:54;99651.95;;;10.90;89.59
67373;BME280;54257;54.496;18.412;2022-09-09T06:06:23;99652.61;;;10.89;89.88
67373;BME280;54257;54.496;18.412;2022-09-09T06:08:59;99652.09;;;10.86;89.36
67373;BME280;54257;54.496;18.412;2022-09-09T06:11:30;99651.36;;;10.82;89.19
67373;BME280;54257;54.496;18.412;2022-09-09T06:13:59;99656.79;;;10.79;89.49
67373;BME280;54257;54.496;18.412;2022-09-09T06:16:28;99656.77;;;10.78;89.01
67373;BME280;54257;54.496;18.412;2022-09-09T06:18:57;99656.95;;;10.79;89.14
67373;BME280;54257;54.496;18.412;2022-09-09T06:21:27;99657.33;;;10.81;89.04
67373;BME280;54257;54.496;18.412;2022-09-09T06:23:55;99661.29;;;10.83;89.50
67373;BME280;54257;54.496;18.412;2022-09-09T06:26:24;99661.80;;;10.83;88.95
67373;BME280;54257;54.496;18.412;2022-09-09T06:28:54;99663.54;;;10.87;88.43
67373;BME280;54257;54.496;18.412;2022-09-09T06:31:23;99667.97;;;10.85;88.79
67373;BME280;54257;54.496;18.412;2022-09-09T06:33:53;99669.67;;;10.84;88.69
67373;BME280;54257;54.496;18.412;2022-09-09T06:36:24;99669.10;;;10.81;89.15
67373;BME280;54257;54.496;18.412;2022-09-09T06:38:52;99667.90;;;10.79;89.18
67373;BME280;54257;54.496;18.412;2022-09-09T06:41:21;99658.66;;;10.77;89.03
67373;BME280;54257;54.496;18.412;2022-09-09T06:43:49;99658.47;;;10.76;88.84
67373;BME280;54257;54.496;18.412;2022-09-09T06:46:18;99660.12;;;10.72;89.72
67373;BME280;54257;54.496;18.412;2022-09-09T06:48:46;99665.26;;;10.72;89.25
67373;BME280;54257;54.496;18.412;2022-09-09T06:51:18;99670.37;;;10.72;89.64
67373;BME280;54257;54.496;18.412;2022-09-09T06:53:46;99671.20;;;10.68;90.04
67373;BME280;54257;54.496;18.412;2022-09-09T06:59:04;99671.56;;;10.71;89.52
67373;BME280;54257;54.496;18.412;2022-09-09T07:01:34;99674.95;;;10.69;89.68
67373;BME280;54257;54.496;18.412;2022-09-09T07:04:02;99682.48;;;10.70;89.77
67373;BME280;54257;54.496;18.412;2022-09-09T07:06:34;99687.37;;;10.65;89.99
67373;BME280;54257;54.496;18.412;2022-09-09T07:09:06;99689.05;;;10.62;89.55
67373;BME280;54257;54.496;18.412;2022-09-09T07:11:39;99687.34;;;10.61;89.60
67373;BME280;54257;54.496;18.412;2022-09-09T07:14:09;99692.10;;;10.59;89.61
67373;BME280;54257;54.496;18.412;2022-09-09T07:16:44;99695.38;;;10.63;89.03
67373;BME280;54257;54.496;18.412;2022-09-09T07:19:12;99694.55;;;10.65;88.43
67373;BME280;54257;54.496;18.412;2022-09-09T07:21:41;99706.19;;;10.52;88.26
67373;BME280;54257;54.496;18.412;2022-09-09T07:24:09;99694.41;;;10.52;88.02
67373;BME280;54257;54.496;18.412;2022-09-09T07:26:38;99701.91;;;10.51;88.15
67373;BME280;54257;54.496;18.412;2022-09-09T07:29:06;99702.95;;;10.53;88.19
67373;BME280;54257;54.496;18.412;2022-09-09T07:31:36;99703.11;;;10.51;88.14
67373;BME280;54257;54.496;18.412;2022-09-09T07:34:04;99704.95;;;10.50;88.00
67373;BME280;54257;54.496;18.412;2022-09-09T07:36:37;99708.75;;;10.52;88.07
67373;BME280;54257;54.496;18.412;2022-09-09T07:39:07;99709.94;;;10.51;88.11
67373;BME280;54257;54.496;18.412;2022-09-09T07:41:44;99707.39;;;10.53;87.95
67373;BME280;54257;54.496;18.412;2022-09-09T07:44:17;99709.57;;;10.50;88.09
67373;BME280;54257;54.496;18.412;2022-09-09T07:46:46;99710.59;;;10.50;88.43
67373;BME280;54257;54.496;18.412;2022-09-09T07:49:14;99710.64;;;10.41;89.09
67373;BME280;54257;54.496;18.412;2022-09-09T07:51:44;99710.45;;;10.38;89.26
67373;BME280;54257;54.496;18.412;2022-09-09T07:54:13;99710.77;;;10.37;89.37
67373;BME280;54257;54.496;18.412;2022-09-09T07:56:42;99711.80;;;10.37;89.50
67373;BME280;54257;54.496;18.412;2022-09-09T07:59:09;99713.19;;;10.40;89.08
67373;BME280;54257;54.496;18.412;2022-09-09T08:01:41;99713.71;;;10.41;89.37
67373;BME280;54257;54.496;18.412;2022-09-09T08:04:12;99713.91;;;10.43;89.63
67373;BME280;54257;54.496;18.412;2022-09-09T08:06:53;99714.13;;;10.46;89.22
67373;BME280;54257;54.496;18.412;2022-09-09T08:09:21;99717.22;;;10.48;89.83
67373;BME280;54257;54.496;18.412;2022-09-09T08:11:51;99716.38;;;10.48;89.97
67373;BME280;54257;54.496;18.412;2022-09-09T08:14:19;99718.76;;;10.48;89.93
67373;BME280;54257;54.496;18.412;2022-09-09T08:16:47;99717.45;;;10.51;89.73
67373;BME280;54257;54.496;18.412;2022-09-09T08:19:16;99718.10;;;10.50;90.56
67373;BME280;54257;54.496;18.412;2022-09-09T08:21:44;99721.20;;;10.51;89.99
67373;BME280;54257;54.496;18.412;2022-09-09T08:24:13;99719.65;;;10.51;90.22
67373;BME280;54257;54.496;18.412;2022-09-09T08:26:46;99721.73;;;10.52;90.28
67373;BME280;54257;54.496;18.412;2022-09-09T08:29:16;99725.84;;;10.53;89.72
67373;BME280;54257;54.496;18.412;2022-09-09T08:31:55;99725.00;;;10.55;90.05
67373;BME280;54257;54.496;18.412;2022-09-09T08:34:25;99725.69;;;10.54;89.95
67373;BME280;54257;54.496;18.412;2022-09-09T08:36:54;99730.27;;;10.52;90.35
67373;BME280;54257;54.496;18.412;2022-09-09T08:39:22;99727.52;;;10.51;90.14
67373;BME280;54257;54.496;18.412;2022-09-09T08:50:03;99729.17;;;10.49;90.46
67373;BME280;54257;54.496;18.412;2022-09-09T08:53:01;99735.10;;;10.43;90.63
67373;BME280;54257;54.496;18.412;2022-09-09T08:55:53;99731.87;;;10.44;90.27
67373;BME280;54257;54.496;18.412;2022-09-09T09:06:29;99732.27;;;10.50;90.22
67373;BME280;54257;54.496;18.412;2022-09-09T09:11:56;99736.40;;;10.51;90.10
67373;BME280;54257;54.496;18.412;2022-09-09T09:14:35;99734.56;;;10.55;90.22
67373;BME280;54257;54.496;18.412;2022-09-09T09:17:09;99738.34;;;10.57;90.19
67373;BME280;54257;54.496;18.412;2022-09-09T09:19:40;99742.15;;;10.60;90.02
67373;BME280;54257;54.496;18.412;2022-09-09T09:25:17;99741.05;;;10.54;90.29
67373;BME280;54257;54.496;18.412;2022-09-09T09:27:58;99739.70;;;10.56;89.95
67373;BME280;54257;54.496;18.412;2022-09-09T09:30:36;99742.81;;;10.59;90.18
67373;BME280;54257;54.496;18.412;2022-09-09T09:33:32;99746.09;;;10.61;90.14
67373;BME280;54257;54.496;18.412;2022-09-09T09:36:01;99742.01;;;10.62;90.34
67373;BME280;54257;54.496;18.412;2022-09-09T09:38:29;99743.20;;;10.61;90.95
67373;BME280;54257;54.496;18.412;2022-09-09T09:40:58;99746.33;;;10.66;90.54
67373;BME280;54257;54.496;18.412;2022-09-09T09:43:29;99744.14;;;10.69;90.86
67373;BME280;54257;54.496;18.412;2022-09-09T09:45:57;99741.95;;;10.72;90.78
67373;BME280;54257;54.496;18.412;2022-09-09T09:48:26;99743.36;;;10.75;90.70
67373;BME280;54257;54.496;18.412;2022-09-09T09:50:57;99746.62;;;10.76;90.90
67373;BME280;54257;54.496;18.412;2022-09-09T09:53:28;99750.25;;;10.81;90.66
67373;BME280;54257;54.496;18.412;2022-09-09T09:58:27;99748.30;;;10.89;90.70
67373;BME280;54257;54.496;18.412;2022-09-09T10:00:55;99746.26;;;10.90;90.47
67373;BME280;54257;54.496;18.412;2022-09-09T10:03:28;99749.38;;;10.92;90.44
67373;BME280;54257;54.496;18.412;2022-09-09T10:05:56;99749.20;;;10.91;90.52
67373;BME280;54257;54.496;18.412;2022-09-09T10:08:25;99752.09;;;10.90;90.34
67373;BME280;54257;54.496;18.412;2022-09-09T10:13:59;99747.70;;;10.81;90.90
67373;BME280;54257;54.496;18.412;2022-09-09T10:19:29;99739.29;;;10.77;91.32
67373;BME280;54257;54.496;18.412;2022-09-09T10:30:19;99742.92;;;10.96;91.25
67373;BME280;54257;54.496;18.412;2022-09-09T10:35:56;99736.56;;;11.08;90.87
67373;BME280;54257;54.496;18.412;2022-09-09T10:53:20;99741.63;;;11.17;91.37
67373;BME280;54257;54.496;18.412;2022-09-09T10:55:43;99743.89;;;11.21;91.54
67373;BME280;54257;54.496;18.412;2022-09-09T10:58:37;99743.63;;;11.30;91.17
67373;BME280;54257;54.496;18.412;2022-09-09T11:01:32;99735.48;;;11.36;90.80
67373;BME280;54257;54.496;18.412;2022-09-09T11:04:17;99736.02;;;11.40;90.68
67373;BME280;54257;54.496;18.412;2022-09-09T11:06:55;99737.26;;;11.42;90.90
67373;BME280;54257;54.496;18.412;2022-09-09T11:09:32;99731.59;;;11.40;90.52
67373;BME280;54257;54.496;18.412;2022-09-09T11:12:00;99738.52;;;11.49;90.76
67373;BME280;54257;54.496;18.412;2022-09-09T11:14:36;99739.23;;;11.51;90.82
67373;BME280;54257;54.496;18.412;2022-09-09T11:17:18;99736.83;;;11.52;90.77
67373;BME280;54257;54.496;18.412;2022-09-09T11:19:45;99737.69;;;11.53;90.94
67373;BME280;54257;54.496;18.412;2022-09-09T11:30:51;99739.30;;;11.61;90.67
67373;BME280;54257;54.496;18.412;2022-09-09T11:36:43;99750.15;;;11.67;90.65
67373;BME280;54257;54.496;18.412;2022-09-09T11:41:52;99750.64;;;11.65;90.59
67373;BME280;54257;54.496;18.412;2022-09-09T11:44:29;99750.65;;;11.68;90.63
67373;BME280;54257;54.496;18.412;2022-09-09T11:46:58;99752.55;;;11.70;90.41
67373;BME280;54257;54.496;18.412;2022-09-09T11:49:45;99754.19;;;11.79;90.29
67373;BME280;54257;54.496;18.412;2022-09-09T11:54:55;99762.48;;;11.88;89.62
67373;BME280;54257;54.496;18.412;2022-09-09T11:57:32;99760.12;;;11.90;89.47
67373;BME280;54257;54.496;18.412;2022-09-09T12:00:03;99761.67;;;11.93;89.46
67373;BME280;54257;54.496;18.412;2022-09-09T12:02:30;99758.08;;;11.92;89.41
67373;BME280;54257;54.496;18.412;2022-09-09T12:05:08;99759.61;;;11.91;89.10
67373;BME280;54257;54.496;18.412;2022-09-09T12:10:29;99764.93;;;11.95;89.33
67373;BME280;54257;54.496;18.412;2022-09-09T12:13:13;99760.52;;;11.98;89.15
67373;BME280;54257;54.496;18.412;2022-09-09T12:15:53;99762.04;;;11.97;89.27
67373;BME280;54257;54.496;18.412;2022-09-09T12:18:35;99753.80;;;11.93;89.54
67373;BME280;54257;54.496;18.412;2022-09-09T12:24:20;99758.42;;;11.93;89.77
67373;BME280;54257;54.496;18.412;2022-09-09T12:30:00;99757.11;;;11.98;89.63
67373;BME280;54257;54.496;18.412;2022-09-09T12:32:29;99752.64;;;11.97;89.39
67373;BME280;54257;54.496;18.412;2022-09-09T12:35:19;99751.24;;;11.95;89.77
67373;BME280;54257;54.496;18.412;2022-09-09T12:37:56;99756.88;;;11.93;89.90
67373;BME280;54257;54.496;18.412;2022-09-09T12:40:31;99752.24;;;11.91;89.95
67373;BME280;54257;54.496;18.412;2022-09-09T12:43:22;99756.88;;;11.92;90.40
67373;BME280;54257;54.496;18.412;2022-09-09T12:45:56;99754.86;;;11.97;90.04
67373;BME280;54257;54.496;18.412;2022-09-09T12:48:30;99755.21;;;11.98;90.31
67373;BME280;54257;54.496;18.412;2022-09-09T12:50:59;99756.42;;;12.00;90.30
67373;BME280;54257;54.496;18.412;2022-09-09T12:53:36;99756.27;;;12.02;90.19
67373;BME280;54257;54.496;18.412;2022-09-09T12:56:17;99757.34;;;12.08;90.01
67373;BME280;54257;54.496;18.412;2022-09-09T12:58:47;99759.40;;;12.12;90.06
67373;BME280;54257;54.496;18.412;2022-09-09T13:01:42;99760.92;;;12.06;89.79
67373;BME280;54257;54.496;18.412;2022-09-09T13:04:21;99759.35;;;12.03;89.98
67373;BME280;54257;54.496;18.412;2022-09-09T13:06:49;99763.63;;;12.01;89.91
67373;BME280;54257;54.496;18.412;2022-09-09T13:09:19;99763.81;;;12.05;90.18
67373;BME280;54257;54.496;18.412;2022-09-09T13:11:52;99762.80;;;12.08;90.02
67373;BME280;54257;54.496;18.412;2022-09-09T13:14:33;99763.88;;;12.13;90.05
67373;BME280;54257;54.496;18.412;2022-09-09T13:17:06;99762.53;;;12.16;90.09
67373;BME280;54257;54.496;18.412;2022-09-09T13:19:36;99757.25;;;12.21;89.65
67373;BME280;54257;54.496;18.412;2022-09-09T13:22:21;99756.60;;;12.26;89.90
67373;BME280;54257;54.496;18.412;2022-09-09T13:24:58;99756.42;;;12.28;89.65
67373;BME280;54257;54.496;18.412;2022-09-09T13:27:33;99752.48;;;12.28;89.42
67373;BME280;54257;54.496;18.412;2022-09-09T13:30:01;99748.23;;;12.29;89.39
67373;BME280;54257;54.496;18.412;2022-09-09T13:32:31;99749.92;;;12.25;89.33
67373;BME280;54257;54.496;18.412;2022-09-09T13:35:00;99747.86;;;12.22;89.36
67373;BME280;54257;54.496;18.412;2022-09-09T13:37:36;99746.66;;;12.23;89.43
67373;BME280;54257;54.496;18.412;2022-09-09T13:40:05;99744.95;;;12.26;89.37
67373;BME280;54257;54.496;18.412;2022-09-09T13:42:44;99742.59;;;12.31;89.11
67373;BME280;54257;54.496;18.412;2022-09-09T13:45:21;99741.26;;;12.38;89.40
67373;BME280;54257;54.496;18.412;2022-09-09T13:47:50;99736.14;;;12.43;89.32
67373;BME280;54257;54.496;18.412;2022-09-09T13:50:27;99736.52;;;12.47;89.27
67373;BME280;54257;54.496;18.412;2022-09-09T13:52:57;99734.11;;;12.49;88.90
67373;BME280;54257;54.496;18.412;2022-09-09T13:55:27;99739.44;;;12.48;88.67
67373;BME280;54257;54.496;18.412;2022-09-09T14:00:25;99738.20;;;12.43;88.55
67373;BME280;54257;54.496;18.412;2022-09-09T14:02:52;99736.14;;;12.44;88.94
67373;BME280;54257;54.496;18.412;2022-09-09T14:05:22;99729.44;;;12.39;88.95
67373;BME280;54257;54.496;18.412;2022-09-09T14:07:49;99721.73;;;12.39;88.82
67373;BME280;54257;54.496;18.412;2022-09-09T14:10:18;99723.30;;;12.40;88.89
67373;BME280;54257;54.496;18.412;2022-09-09T14:12:45;99721.58;;;12.39;88.91
67373;BME280;54257;54.496;18.412;2022-09-09T14:15:13;99720.52;;;12.37;88.97
67373;BME280;54257;54.496;18.412;2022-09-09T14:17:42;99726.68;;;12.36;88.96
67373;BME280;54257;54.496;18.412;2022-09-09T14:20:10;99728.58;;;12.38;88.92
67373;BME280;54257;54.496;18.412;2022-09-09T14:22:39;99723.29;;;12.38;88.99
67373;BME280;54257;54.496;18.412;2022-09-09T14:25:06;99719.48;;;12.34;88.96
67373;BME280;54257;54.496;18.412;2022-09-09T14:27:34;99724.42;;;12.29;89.74
67373;BME280;54257;54.496;18.412;2022-09-09T14:30:02;99725.08;;;12.23;89.54
67373;BME280;54257;54.496;18.412;2022-09-09T14:32:29;99726.07;;;12.19;90.08
67373;BME280;54257;54.496;18.412;2022-09-09T14:34:56;99722.47;;;12.17;89.98
67373;BME280;54257;54.496;18.412;2022-09-09T14:37:23;99721.27;;;12.18;90.31
67373;BME280;54257;54.496;18.412;2022-09-09T14:39:50;99720.77;;;12.20;90.45
67373;BME280;54257;54.496;18.412;2022-09-09T14:42:18;99724.21;;;12.22;90.32
67373;BME280;54257;54.496;18.412;2022-09-09T14:44:45;99723.84;;;12.20;90.60
67373;BME280;54257;54.496;18.412;2022-09-09T14:47:12;99725.73;;;12.19;90.68
67373;BME280;54257;54.496;18.412;2022-09-09T14:49:42;99728.13;;;12.20;90.82
67373;BME280;54257;54.496;18.412;2022-09-09T14:52:10;99736.70;;;12.19;91.01
67373;BME280;54257;54.496;18.412;2022-09-09T14:54:41;99739.39;;;12.14;91.44
67373;BME280;54257;54.496;18.412;2022-09-09T14:57:08;99739.71;;;12.12;91.05
67373;BME280;54257;54.496;18.412;2022-09-09T14:59:35;99743.33;;;12.13;91.33
67373;BME280;54257;54.496;18.412;2022-09-09T15:02:03;99745.37;;;12.12;91.71
67373;BME280;54257;54.496;18.412;2022-09-09T15:04:31;99743.48;;;12.12;91.74
67373;BME280;54257;54.496;18.412;2022-09-09T15:06:58;99738.17;;;12.11;92.20
67373;BME280;54257;54.496;18.412;2022-09-09T15:09:25;99737.65;;;12.10;91.97
67373;BME280;54257;54.496;18.412;2022-09-09T15:11:53;99734.73;;;12.10;91.68
67373;BME280;54257;54.496;18.412;2022-09-09T15:14:20;99736.48;;;12.13;91.55
67373;BME280;54257;54.496;18.412;2022-09-09T15:16:47;99733.23;;;12.13;91.94
67373;BME280;54257;54.496;18.412;2022-09-09T15:19:14;99734.92;;;12.11;92.14
67373;BME280;54257;54.496;18.412;2022-09-09T15:21:41;99735.77;;;12.10;91.94
67373;BME280;54257;54.496;18.412;2022-09-09T15:24:09;99738.00;;;12.09;92.42
67373;BME280;54257;54.496;18.412;2022-09-09T15:26:37;99739.88;;;12.09;92.40
67373;BME280;54257;54.496;18.412;2022-09-09T15:29:08;99739.89;;;12.10;92.49
67373;BME280;54257;54.496;18.412;2022-09-09T15:31:36;99740.21;;;12.07;92.61